Time;durP1;ratioP1;P1;durP2;ratioP2;P2;SDS_P1;SDS_P2;PMS_P1;PMS_P2;Temp;Humidity;BMP_temperature;BMP_pressure;BME280_temperature;BME280_humidity;BME280_pressure;Samples;Min_cycle;Max_cycle;Signal;HPM_P1;HPM_P2
2022/06/30 00:01:44;;;;;;;13.25;7.88;;;21.40;99.90;;;;;;5072594;28;20393;-54
2022/06/30 00:04:09;;;;;;;14.02;8.10;;;21.20;1.00;;;;;;5068096;28;20388;-53
2022/06/30 00:06:35;;;;;;;12.97;8.17;;;21.10;99.90;;;;;;5069931;28;21236;-53
2022/06/30 00:09:01;;;;;;;13.40;7.73;;;21.00;1.00;;;;;;5072544;28;20807;-53
2022/06/30 00:11:26;;;;;;;14.38;8.00;;;21.00;4.50;;;;;;5074710;28;20388;-53
2022/06/30 00:13:52;;;;;;;14.65;8.80;;;20.90;1.00;;;;;;5070564;28;20391;-53
2022/06/30 00:16:18;;;;;;;12.85;7.50;;;20.80;1.00;;;;;;5070675;28;20664;-53
2022/06/30 00:18:45;;;;;;;13.77;8.60;;;21.40;99.90;;;;;;5068324;28;20458;-54
2022/06/30 00:21:11;;;;;;;12.52;7.80;;;20.60;30.00;;;;;;5070496;28;20388;-53
2022/06/30 00:23:37;;;;;;;14.02;8.52;;;20.60;1.00;;;;;;5069615;28;20382;-54
2022/06/30 00:26:03;;;;;;;13.07;7.63;;;20.70;1.00;;;;;;5069010;28;20450;-54
2022/06/30 00:28:29;;;;;;;11.82;7.35;;;20.70;1.00;;;;;;5069809;28;20388;-53
2022/06/30 00:30:55;;;;;;;11.93;7.80;;;20.70;1.00;;;;;;5069857;28;20403;-54
2022/06/30 00:33:20;;;;;;;12.60;7.53;;;20.70;5.60;;;;;;5066336;28;20516;-53
2022/06/30 00:35:46;;;;;;;11.20;6.95;;;20.70;1.00;;;;;;5074609;28;20758;-54
2022/06/30 00:38:13;;;;;;;12.00;7.65;;;20.80;1.00;;;;;;5070190;28;20403;-54
2022/06/30 00:40:43;;;;;;;12.02;7.70;;;20.90;99.90;;;;;;5069113;28;20387;-55
2022/06/30 00:43:10;;;;;;;13.43;8.23;;;20.90;99.90;;;;;;5067244;28;20398;-54
2022/06/30 00:45:44;;;;;;;13.77;7.88;;;20.80;99.90;;;;;;5068560;28;20408;-55
2022/06/30 00:48:10;;;;;;;12.18;8.15;;;20.80;1.00;;;;;;5068602;28;20392;-54
2022/06/30 00:50:36;;;;;;;10.98;7.80;;;20.90;1.00;;;;;;5068862;28;21180;-54
2022/06/30 00:53:07;;;;;;;12.53;8.33;;;20.80;1.00;;;;;;5072145;28;20482;-54
2022/06/30 00:55:33;;;;;;;12.57;8.63;;;20.80;1.00;;;;;;5066275;28;20416;-54
2022/06/30 00:58:09;;;;;;;11.32;7.70;;;20.80;1.00;;;;;;5069251;28;20387;-54
2022/06/30 01:00:38;;;;;;;15.18;7.55;;;20.70;76.00;;;;;;5066870;28;20399;-54
2022/06/30 01:03:05;;;;;;;12.57;8.10;;;20.70;99.90;;;;;;5069625;28;20384;-54
2022/06/30 01:05:31;;;;;;;12.35;8.30;;;20.60;99.90;;;;;;5066089;28;20647;-54
2022/06/30 01:07:57;;;;;;;11.80;8.35;;;20.50;99.90;;;;;;5069395;28;20395;-54
2022/06/30 01:13:07;;;;;;;13.13;8.48;;;20.40;99.90;;;;;;5068889;28;20730;-54
2022/06/30 01:15:33;;;;;;;15.73;8.02;;;20.30;1.00;;;;;;5068594;28;20384;-54
2022/06/30 01:17:59;;;;;;;12.00;7.70;;;20.20;1.00;;;;;;5069074;28;20785;-53
2022/06/30 01:20:27;;;;;;;14.63;9.07;;;20.20;1.00;;;;;;5062558;28;21002;-54
2022/06/30 01:22:54;;;;;;;12.80;8.05;;;20.20;1.00;;;;;;5069060;28;20415;-54
2022/06/30 01:25:19;;;;;;;12.43;8.40;;;20.10;1.00;;;;;;5068212;28;20416;-53
2022/06/30 01:27:45;;;;;;;14.43;9.60;;;20.00;1.00;;;;;;5065718;28;20396;-54
2022/06/30 01:30:11;;;;;;;12.80;8.50;;;20.00;1.00;;;;;;5067220;28;20435;-54
2022/06/30 01:32:37;;;;;;;14.50;10.00;;;20.10;1.00;;;;;;5067834;28;20857;-54
2022/06/30 01:35:03;;;;;;;14.57;10.00;;;20.10;1.00;;;;;;5069169;28;20395;-53
2022/06/30 01:37:44;;;;;;;16.17;11.18;;;20.00;1.00;;;;;;5069151;28;20461;-53
2022/06/30 01:40:10;;;;;;;15.82;11.30;;;19.80;1.00;;;;;;5067424;28;20386;-54
2022/06/30 01:42:36;;;;;;;17.63;10.90;;;19.80;1.00;;;;;;5069870;28;20403;-53
2022/06/30 01:45:02;;;;;;;16.10;10.30;;;19.80;1.00;;;;;;5068729;28;20735;-54
2022/06/30 01:47:28;;;;;;;17.20;10.10;;;19.80;1.00;;;;;;5068055;28;20413;-53
2022/06/30 01:49:53;;;;;;;15.70;10.20;;;19.80;1.00;;;;;;5068571;28;20876;-53
2022/06/30 01:52:19;;;;;;;16.67;10.60;;;19.70;1.00;;;;;;5068571;28;20401;-53
2022/06/30 01:54:44;;;;;;;16.00;10.97;;;19.70;1.00;;;;;;5068269;28;20435;-54
2022/06/30 01:57:10;;;;;;;18.63;11.20;;;19.70;1.00;;;;;;5068970;28;20387;-53
2022/06/30 01:59:36;;;;;;;15.27;10.50;;;19.70;1.00;;;;;;5066628;28;20492;-52
2022/06/30 02:02:01;;;;;;;15.80;9.93;;;19.70;1.00;;;;;;5067717;28;20653;-52
2022/06/30 02:07:11;;;;;;;15.50;11.23;;;19.60;1.00;;;;;;5066967;28;20379;-52
2022/06/30 02:09:37;;;;;;;17.85;12.32;;;19.60;1.00;;;;;;5067856;28;20399;-52
2022/06/30 02:14:47;;;;;;;18.50;12.43;;;19.60;1.00;;;;;;5066343;28;20410;-52
2022/06/30 02:17:12;;;;;;;20.33;12.50;;;19.50;1.00;;;;;;5068345;28;20392;-53
2022/06/30 02:19:38;;;;;;;17.43;10.83;;;19.40;7.00;;;;;;5067678;28;20463;-53
2022/06/30 02:22:04;;;;;;;15.90;10.70;;;19.40;1.00;;;;;;5067936;28;20415;-53
2022/06/30 02:24:29;;;;;;;16.98;11.43;;;19.40;1.00;;;;;;5067148;28;20417;-53
2022/06/30 02:26:55;;;;;;;18.60;11.70;;;19.40;1.00;;;;;;5068149;28;20904;-53
2022/06/30 02:29:21;;;;;;;15.13;10.90;;;19.30;1.00;;;;;;5067289;28;20384;-52
2022/06/30 02:31:46;;;;;;;16.73;11.33;;;19.20;19.00;;;;;;5069278;28;20464;-53
2022/06/30 02:34:12;;;;;;;16.98;11.65;;;19.10;41.50;;;;;;5069288;28;20508;-53
2022/06/30 02:36:37;;;;;;;15.93;10.98;;;19.10;53.10;;;;;;5065661;28;21240;-53
2022/06/30 02:39:03;;;;;;;17.10;11.63;;;19.10;46.40;;;;;;5070581;28;20679;-53
2022/06/30 02:41:29;;;;;;;15.30;10.70;;;19.00;79.30;;;;;;5068636;28;20391;-53
2022/06/30 02:43:54;;;;;;;17.50;11.20;;;19.00;99.90;;;;;;5073971;28;20396;-53
2022/06/30 02:46:20;;;;;;;15.40;10.97;;;19.00;99.90;;;;;;5071542;28;20476;-52
2022/06/30 02:48:48;;;;;;;17.00;11.52;;;18.90;99.90;;;;;;5071727;28;20391;-53
2022/06/30 02:51:13;;;;;;;18.38;12.52;;;18.70;99.90;;;;;;5072045;28;20580;-53
2022/06/30 02:53:39;;;;;;;17.70;11.40;;;18.60;99.90;;;;;;5072059;28;21039;-53
2022/06/30 02:56:05;;;;;;;18.45;12.43;;;18.60;99.90;;;;;;5071591;28;20392;-54
2022/06/30 02:58:30;;;;;;;16.77;12.55;;;18.60;99.90;;;;;;5071711;28;20479;-51
2022/06/30 03:00:56;;;;;;;18.00;12.40;;;18.60;99.90;;;;;;5075769;28;20406;-54
2022/06/30 03:03:21;;;;;;;14.87;10.50;;;18.70;99.90;;;;;;5068497;28;20376;-52
2022/06/30 03:05:47;;;;;;;17.23;11.60;;;18.80;99.90;;;;;;5072776;28;20404;-53
2022/06/30 03:08:13;;;;;;;18.02;11.45;;;18.80;99.90;;;;;;5073730;28;20840;-53
2022/06/30 03:10:38;;;;;;;17.13;11.85;;;18.60;99.90;;;;;;5070898;28;20903;-53
2022/06/30 03:13:04;;;;;;;19.77;12.00;;;18.50;99.90;;;;;;5071249;28;20933;-53
2022/06/30 03:15:29;;;;;;;17.47;10.80;;;18.30;99.90;;;;;;5071071;28;20419;-53
2022/06/30 03:17:56;;;;;;;16.80;10.50;;;18.20;99.90;;;;;;5071471;28;20888;-54
2022/06/30 03:20:23;;;;;;;15.68;11.10;;;18.10;99.90;;;;;;5068515;28;20380;-52
2022/06/30 03:22:48;;;;;;;16.20;10.60;;;18.20;99.90;;;;;;5071235;28;20474;-54
2022/06/30 03:25:14;;;;;;;16.47;10.67;;;18.20;99.90;;;;;;5070601;28;20526;-53
2022/06/30 03:27:40;;;;;;;13.80;9.60;;;18.30;99.90;;;;;;5070172;28;21004;-52
2022/06/30 03:30:06;;;;;;;14.95;9.32;;;18.20;99.90;;;;;;5071871;28;20403;-55
2022/06/30 03:32:31;;;;;;;18.33;9.90;;;18.30;99.90;;;;;;5070346;28;20496;-54
2022/06/30 03:34:57;;;;;;;14.68;10.60;;;18.40;99.90;;;;;;5073088;28;20849;-53
2022/06/30 03:37:23;;;;;;;15.80;10.43;;;18.40;99.90;;;;;;5070252;28;20459;-51
2022/06/30 03:39:48;;;;;;;13.23;9.10;;;18.40;71.20;;;;;;5070817;28;20384;-53
2022/06/30 03:42:14;;;;;;;15.33;9.43;;;18.40;91.60;;;;;;5070783;28;20404;-53
2022/06/30 03:44:40;;;;;;;13.52;9.40;;;18.50;38.10;;;;;;5069864;28;20452;-52
2022/06/30 03:47:05;;;;;;;13.95;9.20;;;18.40;29.50;;;;;;5072427;28;20390;-53
2022/06/30 03:49:31;;;;;;;13.07;9.20;;;18.40;58.60;;;;;;5070017;28;20837;-52
2022/06/30 03:51:57;;;;;;;14.98;9.65;;;18.40;55.80;;;;;;5070054;28;20457;-53
2022/06/30 03:54:23;;;;;;;17.60;9.70;;;18.40;68.00;;;;;;5069147;28;20395;-52
2022/06/30 03:56:48;;;;;;;16.00;10.27;;;18.50;45.40;;;;;;5070440;28;20393;-53
2022/06/30 03:59:14;;;;;;;13.75;9.48;;;18.50;36.20;;;;;;5070348;28;20781;-53
2022/06/30 04:01:40;;;;;;;13.15;9.80;;;18.60;14.30;;;;;;5069172;28;20457;-53
2022/06/30 04:04:06;;;;;;;15.70;9.90;;;18.50;11.50;;;;;;5070663;28;20383;-53
2022/06/30 04:06:32;;;;;;;16.08;9.85;;;18.50;34.00;;;;;;5068288;28;20435;-53
2022/06/30 04:08:58;;;;;;;13.75;9.60;;;18.60;26.20;;;;;;5062765;28;20418;-53
2022/06/30 04:11:23;;;;;;;16.65;10.27;;;18.70;12.10;;;;;;5085689;28;20468;-53
2022/06/30 04:13:49;;;;;;;13.33;9.20;;;18.20;1.00;;;;;;5081627;28;20419;-53
2022/06/30 04:16:14;;;;;;;16.80;9.70;;;18.70;1.00;;;;;;5071098;28;20737;-53
2022/06/30 04:18:40;;;;;;;15.77;9.82;;;18.70;1.00;;;;;;5064961;28;20451;-53
2022/06/30 04:21:06;;;;;;;14.57;9.10;;;18.90;1.00;;;;;;5066702;28;20396;-53
2022/06/30 04:23:31;;;;;;;18.80;9.80;;;19.00;1.00;;;;;;5069337;28;20659;-53
2022/06/30 04:25:57;;;;;;;19.47;10.10;;;19.10;1.00;;;;;;5077904;28;20427;-53
2022/06/30 04:28:22;;;;;;;15.43;8.67;;;19.20;1.00;;;;;;5062967;28;20421;-52
2022/06/30 04:33:32;;;;;;;14.40;8.70;;;19.50;1.00;;;;;;5063427;28;20394;-53
2022/06/30 04:35:59;;;;;;;16.52;9.18;;;19.60;1.00;;;;;;5068052;28;20718;-53
2022/06/30 04:38:24;;;;;;;13.40;9.07;;;19.60;1.00;;;;;;5070077;28;20555;-52
2022/06/30 04:43:34;;;;;;;17.42;8.48;;;19.70;1.00;;;;;;5065644;28;20453;-53
2022/06/30 04:46:00;;;;;;;16.70;8.80;;;19.80;1.00;;;;;;5071112;28;20411;-54
2022/06/30 04:48:26;;;;;;;16.30;9.32;;;19.80;1.00;;;;;;5081297;28;20397;-52
2022/06/30 04:50:51;;;;;;;13.50;8.73;;;20.00;1.00;;;;;;5090752;28;20382;-53
2022/06/30 04:53:17;;;;;;;15.03;9.70;;;20.20;1.00;;;;;;5089386;28;20850;-53
2022/06/30 04:55:42;;;;;;;16.00;9.43;;;20.40;1.00;;;;;;5088600;28;20405;-53
2022/06/30 04:58:08;;;;;;;14.30;9.50;;;20.60;99.90;;;;;;5087510;28;20394;-53
2022/06/30 05:00:34;;;;;;;16.05;9.70;;;20.90;99.90;;;;;;5089934;28;20735;-53
2022/06/30 05:02:59;;;;;;;15.23;10.50;;;21.90;1.00;;;;;;5077918;28;20413;-54
2022/06/30 05:05:26;;;;;;;15.20;10.10;;;23.00;22.80;;;;;;5063900;28;20536;-53
2022/06/30 05:07:51;;;;;;;15.00;10.15;;;25.20;99.90;;;;;;5064876;28;20416;-54
2022/06/30 05:10:17;;;;;;;15.17;10.20;;;24.80;99.90;;;;;;5067237;28;20456;-54
2022/06/30 05:12:43;;;;;;;14.23;8.90;;;25.60;47.90;;;;;;5067306;28;20383;-54
2022/06/30 05:15:09;;;;;;;14.07;10.10;;;26.40;1.00;;;;;;5069504;28;20387;-54
2022/06/30 05:17:35;;;;;;;15.52;10.75;;;27.00;1.00;;;;;;5064890;28;20559;-54
2022/06/30 05:20:01;;;;;;;16.05;9.85;;;27.30;1.00;;;;;;5065709;28;20421;-54
2022/06/30 05:22:26;;;;;;;13.05;9.40;;;27.30;1.00;;;;;;5073743;28;20387;-53
2022/06/30 05:27:36;;;;;;;16.35;9.02;;;28.40;1.00;;;;;;5067670;28;20446;-54
2022/06/30 05:30:02;;;;;;;14.75;9.10;;;28.70;99.90;;;;;;5066528;28;20517;-54
2022/06/30 05:32:28;;;;;;;14.95;10.30;;;28.80;99.90;;;;;;5063855;28;20470;-53
2022/06/30 05:34:54;;;;;;;13.73;9.52;;;29.50;99.90;;;;;;5068273;28;20895;-53
2022/06/30 05:37:19;;;;;;;15.17;10.10;;;29.80;99.90;;;;;;5089866;28;20378;-54
2022/06/30 05:39:45;;;;;;;16.30;14.60;;;30.80;99.90;;;;;;5080476;28;20528;-53
2022/06/30 05:42:11;;;;;;;12.98;9.82;;;31.20;99.90;;;;;;5085371;28;20378;-53
2022/06/30 05:44:36;;;;;;;15.25;11.40;;;31.30;99.90;;;;;;5081447;28;20536;-53
2022/06/30 05:47:02;;;;;;;12.80;10.97;;;31.80;99.90;;;;;;5074660;28;20408;-53
2022/06/30 05:49:28;;;;;;;13.60;9.20;;;32.50;99.90;;;;;;5077468;28;20444;-52
2022/06/30 05:51:53;;;;;;;17.73;11.50;;;33.30;99.90;;;;;;5070005;28;20392;-54
2022/06/30 05:54:19;;;;;;;14.15;12.70;;;34.10;99.90;;;;;;5070040;28;20447;-54
2022/06/30 05:56:45;;;;;;;15.70;9.60;;;34.80;99.90;;;;;;5068062;28;20379;-53
2022/06/30 05:59:11;;;;;;;16.60;13.30;;;34.80;99.90;;;;;;5068907;28;20833;-54
2022/06/30 06:01:37;;;;;;;12.40;10.00;;;35.30;99.90;;;;;;5068145;28;20383;-54
2022/06/30 06:04:03;;;;;;;13.33;10.90;;;35.50;99.90;;;;;;5064782;28;20408;-53
2022/06/30 06:06:29;;;;;;;15.47;11.00;;;35.90;99.90;;;;;;5063116;28;20427;-53
2022/06/30 06:08:54;;;;;;;16.27;10.50;;;35.90;99.90;;;;;;5068809;28;20441;-54
2022/06/30 06:11:20;;;;;;;13.60;10.40;;;35.90;99.90;;;;;;5069454;28;20392;-53
2022/06/30 06:13:46;;;;;;;13.15;10.10;;;36.00;99.90;;;;;;5085046;28;20379;-56
2022/06/30 06:16:12;;;;;;;13.60;9.83;;;36.30;99.90;;;;;;5068782;28;20462;-55
2022/06/30 06:18:37;;;;;;;12.52;10.15;;;37.10;99.90;;;;;;5068301;28;20391;-55
2022/06/30 06:21:03;;;;;;;15.18;13.05;;;37.30;99.90;;;;;;5068889;28;20376;-55
2022/06/30 06:23:29;;;;;;;16.77;15.17;;;36.90;99.90;;;;;;5067709;28;20940;-55
2022/06/30 06:25:54;;;;;;;13.85;9.20;;;36.70;99.90;;;;;;5068384;28;20556;-55
2022/06/30 06:31:07;;;;;;;14.03;10.93;;;37.00;99.90;;;;;;5069062;28;20506;-55
2022/06/30 06:33:33;;;;;;;13.90;10.40;;;36.20;99.90;;;;;;5067653;28;20470;-54
2022/06/30 06:35:59;;;;;;;12.13;9.60;;;36.60;99.90;;;;;;5068686;28;20383;-55
2022/06/30 06:38:25;;;;;;;11.87;8.80;;;37.00;99.90;;;;;;5068286;28;20383;-53
2022/06/30 06:40:50;;;;;;;12.95;9.48;;;36.90;99.90;;;;;;5067190;28;20812;-55
2022/06/30 06:43:16;;;;;;;13.40;10.00;;;37.40;99.90;;;;;;5069618;28;20384;-55
2022/06/30 06:45:41;;;;;;;14.38;9.10;;;37.80;99.90;;;;;;5068168;28;20732;-55
2022/06/30 06:48:07;;;;;;;13.00;8.60;;;37.90;99.90;;;;;;5069058;28;20437;-54
2022/06/30 06:50:33;;;;;;;12.35;8.90;;;38.10;99.90;;;;;;5068246;28;20479;-54
2022/06/30 06:52:58;;;;;;;12.67;7.90;;;37.90;99.90;;;;;;5068852;28;20379;-55
2022/06/30 06:55:24;;;;;;;11.70;9.10;;;38.00;99.90;;;;;;5068932;28;20408;-54
2022/06/30 06:57:49;;;;;;;10.75;8.10;;;37.90;99.90;;;;;;5068367;28;20383;-55
2022/06/30 07:00:17;;;;;;;12.33;9.03;;;38.10;99.90;;;;;;5069008;28;20403;-55
2022/06/30 07:02:43;;;;;;;11.90;9.20;;;38.10;99.90;;;;;;5068168;28;20430;-55
2022/06/30 07:05:09;;;;;;;14.73;13.27;;;38.80;99.90;;;;;;5068921;28;20416;-56
2022/06/30 07:07:36;;;;;;;10.68;8.68;;;39.00;99.90;;;;;;5054649;28;20389;-57
2022/06/30 07:10:04;;;;;;;10.90;9.00;;;39.10;99.90;;;;;;5061629;28;20399;-55
2022/06/30 07:12:29;;;;;;;14.10;7.80;;;39.50;99.90;;;;;;5064459;28;20379;-58
2022/06/30 07:14:55;;;;;;;14.50;8.30;;;38.90;99.90;;;;;;5067890;28;20402;-55
2022/06/30 07:17:20;;;;;;;11.88;7.07;;;37.90;99.90;;;;;;5066710;28;20840;-55
2022/06/30 07:19:46;;;;;;;11.40;7.80;;;38.30;99.90;;;;;;5067097;28;20388;-55
2022/06/30 07:22:12;;;;;;;11.93;9.07;;;38.00;99.90;;;;;;5063768;28;20387;-55
2022/06/30 07:24:37;;;;;;;10.97;7.30;;;38.10;99.90;;;;;;5066886;28;20461;-55
2022/06/30 07:27:03;;;;;;;11.48;7.45;;;37.70;99.90;;;;;;5067650;28;20894;-55
2022/06/30 07:29:30;;;;;;;10.93;7.50;;;38.10;99.90;;;;;;5070165;28;20379;-54
2022/06/30 07:31:56;;;;;;;11.00;8.45;;;38.10;99.90;;;;;;5069378;28;20438;-55
2022/06/30 07:34:22;;;;;;;10.30;7.43;;;37.90;99.90;;;;;;5071711;28;20443;-56
2022/06/30 07:36:48;;;;;;;9.67;6.70;;;38.50;99.90;;;;;;5070295;28;20372;-55
2022/06/30 07:39:13;;;;;;;10.35;6.90;;;38.70;99.90;;;;;;5071443;28;20398;-55
2022/06/30 07:41:39;;;;;;;10.93;7.33;;;39.20;99.90;;;;;;5070493;28;20474;-55
2022/06/30 07:44:04;;;;;;;12.40;7.20;;;39.30;99.90;;;;;;5071011;28;20422;-56
2022/06/30 07:46:30;;;;;;;10.97;6.90;;;39.40;99.90;;;;;;5070240;28;20411;-53
2022/06/30 07:48:56;;;;;;;11.85;7.10;;;39.80;99.90;;;;;;5071777;28;20468;-56
2022/06/30 07:51:22;;;;;;;12.17;6.87;;;40.20;99.90;;;;;;5067672;28;20415;-55
2022/06/30 07:53:48;;;;;;;10.85;7.00;;;40.90;99.90;;;;;;5068645;28;20403;-55
2022/06/30 07:56:14;;;;;;;10.90;6.90;;;41.00;99.90;;;;;;5070871;28;20384;-55
2022/06/30 07:58:39;;;;;;;11.70;7.50;;;40.70;99.90;;;;;;5069299;28;20718;-55
2022/06/30 08:01:05;;;;;;;12.63;7.40;;;41.10;99.90;;;;;;5069726;28;20477;-55
2022/06/30 08:03:31;;;;;;;10.30;7.25;;;41.40;99.90;;;;;;5069958;28;20436;-55
2022/06/30 08:05:57;;;;;;;12.38;7.15;;;40.90;99.90;;;;;;5071170;28;20878;-55
2022/06/30 08:08:22;;;;;;;11.10;6.80;;;40.70;99.90;;;;;;5070967;28;20380;-56
2022/06/30 08:10:48;;;;;;;9.43;6.13;;;41.20;99.90;;;;;;5070557;28;21049;-56
2022/06/30 08:13:14;;;;;;;11.10;7.27;;;41.20;99.90;;;;;;5071118;28;20372;-55
2022/06/30 08:15:39;;;;;;;10.40;6.20;;;40.70;99.90;;;;;;5070818;28;20488;-55
2022/06/30 08:18:07;;;;;;;9.67;6.00;;;41.00;99.90;;;;;;5069619;28;20376;-56
2022/06/30 08:20:33;;;;;;;9.55;5.60;;;41.00;99.90;;;;;;5070049;28;20375;-56
2022/06/30 08:22:59;;;;;;;8.60;5.15;;;41.20;99.90;;;;;;5071011;28;20391;-57
2022/06/30 08:25:25;;;;;;;8.87;4.73;;;41.40;99.90;;;;;;5070720;28;20756;-55
2022/06/30 08:27:51;;;;;;;8.23;5.30;;;41.60;99.90;;;;;;5070156;28;20430;-57
2022/06/30 08:30:17;;;;;;;9.50;5.73;;;41.40;99.90;;;;;;5071103;28;20729;-56
2022/06/30 08:32:43;;;;;;;9.15;5.93;;;42.20;99.90;;;;;;5070120;28;20901;-55
2022/06/30 08:35:08;;;;;;;9.35;5.50;;;42.50;99.90;;;;;;5070865;28;20780;-56
2022/06/30 08:37:34;;;;;;;9.23;6.07;;;41.80;99.90;;;;;;5069998;28;20843;-56
2022/06/30 08:42:46;;;;;;;12.00;6.10;;;41.30;99.90;;;;;;5069895;28;20383;-56
2022/06/30 08:45:19;;;;;;;9.88;6.78;;;41.70;99.90;;;;;;5069356;28;20776;-56
2022/06/30 08:47:48;;;;;;;8.88;6.13;;;41.80;99.90;;;;;;5070029;28;20396;-56
2022/06/30 08:50:16;;;;;;;8.20;5.47;;;42.10;99.90;;;;;;5070923;28;20502;-56
2022/06/30 08:52:51;;;;;;;8.13;5.40;;;42.30;99.90;;;;;;5069708;28;20471;-56
2022/06/30 08:55:19;;;;;;;11.32;6.78;;;42.40;99.90;;;;;;5070584;28;20453;-56
2022/06/30 08:57:47;;;;;;;11.75;5.85;;;42.60;99.90;;;;;;5069532;28;20688;-56
2022/06/30 09:00:15;;;;;;;10.05;6.35;;;42.00;99.90;;;;;;5070534;28;20383;-56
2022/06/30 09:02:42;;;;;;;9.82;5.57;;;41.70;99.90;;;;;;5062382;28;20404;-56
2022/06/30 09:05:08;;;;;;;10.43;6.47;;;41.30;99.90;;;;;;5066832;28;20498;-55
2022/06/30 09:07:34;;;;;;;10.50;5.97;;;41.20;99.90;;;;;;5069620;28;20403;-56
2022/06/30 09:10:03;;;;;;;8.87;5.63;;;41.70;99.90;;;;;;5069627;28;20372;-56
2022/06/30 09:12:29;;;;;;;12.00;5.93;;;42.30;99.90;;;;;;5069759;28;20404;-54
2022/06/30 09:14:55;;;;;;;10.67;6.00;;;43.10;99.90;;;;;;5069637;28;20420;-56
2022/06/30 09:17:24;;;;;;;8.90;5.82;;;42.60;99.90;;;;;;5070212;28;20375;-56
2022/06/30 09:20:04;;;;;;;9.20;5.10;;;41.80;99.90;;;;;;5069438;28;20528;-56
2022/06/30 09:22:37;;;;;;;9.35;5.40;;;40.80;99.90;;;;;;5069718;28;20388;-54
2022/06/30 09:25:07;;;;;;;10.20;5.45;;;40.70;99.90;;;;;;5069715;28;20465;-57
2022/06/30 09:27:35;;;;;;;9.57;5.72;;;41.00;99.90;;;;;;5069162;28;20388;-54
2022/06/30 09:30:04;;;;;;;13.05;6.10;;;42.00;99.90;;;;;;5068618;28;20384;-56
2022/06/30 09:32:42;;;;;;;9.30;5.70;;;41.90;99.90;;;;;;5069585;28;20733;-55
2022/06/30 09:35:10;;;;;;;9.38;6.00;;;41.90;99.90;;;;;;5070064;28;20426;-57
2022/06/30 09:37:36;;;;;;;10.82;5.68;;;42.30;99.90;;;;;;5068995;28;20384;-56
2022/06/30 09:40:03;;;;;;;9.52;5.32;;;42.60;99.90;;;;;;5069557;28;20380;-56
2022/06/30 09:42:39;;;;;;;9.60;4.80;;;42.50;99.90;;;;;;5069680;28;20384;-55
2022/06/30 09:45:07;;;;;;;9.00;5.28;;;41.10;99.90;;;;;;5069892;28;20944;-56
2022/06/30 09:47:33;;;;;;;10.13;5.33;;;40.70;99.90;;;;;;5069173;28;20464;-54
2022/06/30 09:50:05;;;;;;;10.53;5.07;;;41.10;99.90;;;;;;5069731;28;20783;-56
2022/06/30 09:52:32;;;;;;;8.27;5.00;;;41.70;99.90;;;;;;5068769;28;20407;-54
2022/06/30 09:55:06;;;;;;;8.47;5.27;;;42.10;99.90;;;;;;5069505;28;20388;-56
2022/06/30 09:57:52;;;;;;;11.52;5.25;;;41.80;99.90;;;;;;5068750;28;20473;-54
2022/06/30 10:00:18;;;;;;;7.72;4.70;;;42.10;99.90;;;;;;5063688;28;20431;-56
2022/06/30 10:02:48;;;;;;;9.60;4.60;;;42.60;99.90;;;;;;5063367;28;20874;-55
2022/06/30 10:05:16;;;;;;;8.45;4.82;;;41.20;99.90;;;;;;5061527;28;20418;-55
2022/06/30 10:07:42;;;;;;;9.07;4.87;;;40.50;99.90;;;;;;5059512;28;20390;-56
2022/06/30 10:10:13;;;;;;;8.37;4.37;;;40.20;99.90;;;;;;5056299;28;20392;-55
2022/06/30 10:12:48;;;;;;;9.93;7.70;;;40.50;99.90;;;;;;5068486;28;20844;-56
2022/06/30 10:15:15;;;;;;;10.82;8.13;;;39.80;99.90;;;;;;5057917;28;20400;-56
2022/06/30 10:17:44;;;;;;;13.38;7.63;;;40.60;99.90;;;;;;5056190;28;20471;-57
2022/06/30 10:20:10;;;;;;;13.45;8.60;;;41.00;99.90;;;;;;5056112;28;20405;-58
2022/06/30 10:22:39;;;;;;;10.10;6.68;;;41.00;99.90;;;;;;5057754;28;20395;-57
2022/06/30 10:25:06;;;;;;;10.40;7.90;;;41.40;99.90;;;;;;5058341;28;20966;-56
2022/06/30 10:27:32;;;;;;;9.02;8.13;;;41.00;99.90;;;;;;5058704;28;20400;-54
2022/06/30 10:30:05;;;;;;;10.52;8.70;;;40.20;99.90;;;;;;5058607;28;20485;-56
2022/06/30 10:32:58;;;;;;;10.18;8.35;;;39.80;99.90;;;;;;5057811;28;20911;-54
2022/06/30 10:35:32;;;;;;;9.90;8.90;;;39.40;99.90;;;;;;5058800;28;20447;-56
2022/06/30 10:38:11;;;;;;;10.88;9.77;;;39.10;99.90;;;;;;5057096;28;20422;-56
2022/06/30 10:40:58;;;;;;;14.50;11.95;;;38.30;99.90;;;;;;5053694;28;20397;-56
2022/06/30 10:43:23;;;;;;;10.90;7.15;;;36.80;99.90;;;;;;5057400;28;20406;-56
2022/06/30 10:45:59;;;;;;;11.18;8.80;;;36.30;99.90;;;;;;5051820;28;20494;-56
2022/06/30 10:48:28;;;;;;;9.63;6.35;;;34.30;99.90;;;;;;5050340;28;20401;-55
2022/06/30 10:50:55;;;;;;;9.63;5.90;;;33.90;99.90;;;;;;5048709;28;20412;-56
2022/06/30 10:53:35;;;;;;;10.23;5.70;;;34.00;99.90;;;;;;5050276;28;20386;-56
2022/06/30 10:56:01;;;;;;;10.13;6.57;;;33.90;99.90;;;;;;5057309;28;20410;-56
2022/06/30 10:58:27;;;;;;;8.30;5.50;;;33.50;99.90;;;;;;5057040;28;20399;-56
2022/06/30 11:01:00;;;;;;;11.25;5.55;;;33.70;99.90;;;;;;5060388;28;21131;-56
2022/06/30 11:03:34;;;;;;;10.50;9.05;;;33.80;99.90;;;;;;5065516;28;20404;-56
2022/06/30 11:06:09;;;;;;;12.63;10.07;;;34.20;99.90;;;;;;5069561;28;20892;-56
2022/06/30 11:11:34;;;;;;;13.45;9.38;;;33.80;99.90;;;;;;5066159;28;20401;-54
2022/06/30 11:14:03;;;;;;;10.50;9.15;;;33.70;99.90;;;;;;5064271;28;20405;-56
2022/06/30 11:16:34;;;;;;;10.40;9.35;;;34.00;99.90;;;;;;5070821;28;20391;-56
2022/06/30 11:19:01;;;;;;;10.27;8.80;;;34.20;99.90;;;;;;5067272;28;20539;-56
2022/06/30 11:21:29;;;;;;;11.30;8.85;;;34.30;99.90;;;;;;5060467;28;20480;-55
2022/06/30 11:24:00;;;;;;;11.50;9.35;;;34.60;99.90;;;;;;5070531;28;20399;-56
2022/06/30 11:29:16;;;;;;;11.65;9.55;;;34.30;99.90;;;;;;5079988;28;20386;-55
2022/06/30 11:31:42;;;;;;;11.55;10.20;;;34.40;99.90;;;;;;5060069;28;20460;-56
2022/06/30 11:34:09;;;;;;;11.20;9.20;;;34.40;99.90;;;;;;5071717;28;20376;-55
2022/06/30 11:36:37;;;;;;;12.00;10.90;;;34.60;99.90;;;;;;5071312;28;20376;-53
2022/06/30 11:39:11;;;;;;;10.50;9.40;;;34.10;99.90;;;;;;5071540;28;20392;-56
2022/06/30 11:42:03;;;;;;;11.80;8.82;;;33.90;99.90;;;;;;5071170;28;20867;-55
2022/06/30 11:44:40;;;;;;;11.40;10.30;;;34.10;99.90;;;;;;5071993;28;20495;-55
2022/06/30 11:47:16;;;;;;;9.50;8.50;;;34.30;99.90;;;;;;5066786;28;20782;-55
2022/06/30 11:49:50;;;;;;;9.77;8.60;;;34.30;99.90;;;;;;5066105;28;20911;-56
2022/06/30 11:52:35;;;;;;;9.60;8.60;;;33.90;99.90;;;;;;5070599;28;20439;-56
2022/06/30 11:55:04;;;;;;;11.20;10.10;;;34.10;99.90;;;;;;5051504;28;20393;-55
2022/06/30 11:57:33;;;;;;;10.33;9.33;;;34.30;99.90;;;;;;5051501;28;20385;-57
2022/06/30 12:00:05;;;;;;;9.23;8.25;;;34.40;99.90;;;;;;5065425;28;20724;-56
2022/06/30 12:02:32;;;;;;;10.60;8.70;;;33.10;99.90;;;;;;5091523;28;20388;-55
2022/06/30 12:04:59;;;;;;;10.00;8.50;;;34.40;99.90;;;;;;5091054;28;20385;-56
2022/06/30 12:07:26;;;;;;;10.38;8.00;;;34.50;99.90;;;;;;5074262;28;20384;-56
2022/06/30 12:09:54;;;;;;;10.10;8.63;;;34.40;99.90;;;;;;5070460;28;20375;-56
2022/06/30 12:12:28;;;;;;;10.80;9.70;;;34.20;99.90;;;;;;5071070;28;20452;-56
2022/06/30 12:14:56;;;;;;;11.57;9.10;;;33.90;99.90;;;;;;5076241;28;20399;-55
2022/06/30 12:17:22;;;;;;;10.35;9.35;;;33.70;99.90;;;;;;5064940;28;20427;-56
2022/06/30 12:19:51;;;;;;;10.15;9.15;;;33.80;99.90;;;;;;5058033;28;20440;-56
2022/06/30 12:22:17;;;;;;;10.80;9.70;;;33.90;99.90;;;;;;5066974;28;20392;-56
2022/06/30 12:24:46;;;;;;;11.27;9.90;;;33.90;99.90;;;;;;5063421;28;20412;-56
2022/06/30 12:27:38;;;;;;;10.40;8.27;;;34.00;99.90;;;;;;5064611;28;20420;-56
2022/06/30 12:30:12;;;;;;;12.45;8.45;;;34.10;99.90;;;;;;5070470;28;20408;-56
2022/06/30 12:32:38;;;;;;;10.18;8.77;;;34.20;99.90;;;;;;5063880;28;20955;-55
2022/06/30 12:35:08;;;;;;;10.55;9.45;;;34.30;99.90;;;;;;5067776;28;20463;-55
2022/06/30 12:37:39;;;;;;;9.10;8.13;;;34.20;99.90;;;;;;5063863;28;20861;-53
2022/06/30 12:40:12;;;;;;;9.52;8.55;;;34.40;99.90;;;;;;5064649;28;20931;-56
2022/06/30 12:42:43;;;;;;;13.10;10.10;;;34.50;99.90;;;;;;5064983;28;20461;-55
2022/06/30 12:45:33;;;;;;;11.00;9.90;;;34.60;99.90;;;;;;5065357;28;20464;-56
2022/06/30 12:47:59;;;;;;;10.63;9.13;;;34.60;99.90;;;;;;5066695;28;20758;-56
2022/06/30 12:50:24;;;;;;;10.90;9.80;;;34.60;99.90;;;;;;5066510;28;20461;-56
2022/06/30 12:52:50;;;;;;;11.15;10.00;;;34.60;99.90;;;;;;5069599;28;20406;-57
2022/06/30 12:55:16;;;;;;;10.13;9.13;;;34.60;99.90;;;;;;5069875;28;20482;-57
2022/06/30 12:57:49;;;;;;;12.70;11.37;;;34.90;99.90;;;;;;5065833;28;20432;-56
2022/06/30 13:00:15;;;;;;;11.30;9.35;;;34.80;99.90;;;;;;5067634;28;20391;-56
2022/06/30 13:02:41;;;;;;;12.07;10.98;;;34.70;99.90;;;;;;5061729;28;20403;-56
2022/06/30 13:05:13;;;;;;;11.80;10.60;;;34.60;99.90;;;;;;5067012;28;20395;-55
2022/06/30 13:07:40;;;;;;;13.00;10.70;;;34.40;99.90;;;;;;5068965;28;20482;-56